Time;durP1;ratioP1;P1;durP2;ratioP2;P2;SDS_P1;SDS_P2;PMS_P1;PMS_P2;Temp;Humidity;BMP_temperature;BMP_pressure;BME280_temperature;BME280_humidity;BME280_pressure;Samples;Min_cycle;Max_cycle;Signal;HPM_P1;HPM_P2
2021/07/22 00:01:34;;;;;;;23.33;15.93;;;;;;;15.94;84.84;100783.06;4996021;28;20057;-69
2021/07/22 00:04:00;;;;;;;25.90;17.35;;;;;;;15.85;85.86;100779.19;4995897;28;20046;-70
2021/07/22 00:06:30;;;;;;;26.63;16.70;;;;;;;15.83;85.26;100783.81;5039389;28;20132;-69
2021/07/22 00:08:56;;;;;;;23.02;17.27;;;;;;;15.88;85.67;100780.78;5015219;28;20403;-69
2021/07/22 00:11:23;;;;;;;23.23;17.40;;;;;;;15.93;85.40;100784.03;5015287;28;20057;-69
2021/07/22 00:13:50;;;;;;;24.63;16.77;;;;;;;15.98;85.64;100781.00;5015518;28;20050;-69
2021/07/22 00:16:17;;;;;;;26.13;16.88;;;;;;;15.91;84.52;100774.31;5047015;28;20049;-69
2021/07/22 00:18:44;;;;;;;26.10;16.90;;;;;;;15.89;85.65;100779.81;5014225;28;20050;-69
2021/07/22 00:21:11;;;;;;;30.17;17.98;;;;;;;15.89;85.07;100780.69;5005370;28;20054;-69
2021/07/22 00:23:38;;;;;;;26.60;17.88;;;;;;;15.84;85.69;100780.16;4994532;28;20077;-69
2021/07/22 00:26:05;;;;;;;24.92;17.30;;;;;;;15.79;86.25;100781.47;4995770;28;20054;-69
2021/07/22 00:28:32;;;;;;;26.38;18.33;;;;;;;15.75;86.28;100781.69;5030812;28;20051;-69
2021/07/22 00:30:59;;;;;;;23.83;17.88;;;;;;;15.68;86.96;100774.19;4999500;28;20050;-69
2021/07/22 00:33:26;;;;;;;25.20;17.35;;;;;;;15.68;87.07;100772.34;4999557;28;20058;-69
2021/07/22 00:35:53;;;;;;;24.63;17.48;;;;;;;15.59;87.73;100764.97;4999347;28;20054;-69
2021/07/22 00:38:19;;;;;;;30.27;17.58;;;;;;;15.58;86.92;100764.09;4999099;28;20502;-69
2021/07/22 00:40:46;;;;;;;27.38;18.23;;;;;;;15.63;87.13;100773.66;4998490;28;20108;-68
2021/07/22 00:43:13;;;;;;;26.83;18.08;;;;;;;15.63;86.75;100766.44;4999270;28;20058;-69
2021/07/22 00:45:40;;;;;;;24.65;17.88;;;;;;;15.58;87.32;100768.63;4999267;28;20424;-68
2021/07/22 00:48:06;;;;;;;26.60;18.90;;;;;;;15.52;87.69;100774.44;4999096;28;20057;-69
2021/07/22 00:50:33;;;;;;;29.55;18.25;;;;;;;15.48;87.44;100763.88;4999084;28;20059;-69
2021/07/22 00:53:00;;;;;;;28.90;18.05;;;;;;;15.40;88.11;100751.94;4998979;28;20101;-69
2021/07/22 00:55:28;;;;;;;27.15;18.50;;;;;;;15.50;87.75;100758.41;4998878;28;20108;-69
2021/07/22 00:57:54;;;;;;;24.05;17.95;;;;;;;15.45;88.06;100763.25;4998847;28;20348;-69
2021/07/22 01:00:21;;;;;;;27.92;17.95;;;;;;;15.43;88.65;100765.19;4999126;28;20087;-69
2021/07/22 01:02:48;;;;;;;26.38;17.95;;;;;;;15.37;87.85;100762.94;4999154;28;20112;-69
2021/07/22 01:05:15;;;;;;;26.52;17.55;;;;;;;15.40;88.04;100760.03;5001185;28;20141;-69
2021/07/22 01:07:42;;;;;;;27.98;19.52;;;;;;;15.41;87.80;100767.16;5017641;28;20050;-68
2021/07/22 01:10:09;;;;;;;27.70;18.95;;;;;;;15.37;87.45;100754.88;5017607;28;20100;-68
2021/07/22 01:12:36;;;;;;;23.77;18.63;;;;;;;15.31;88.02;100753.50;5018856;28;20054;-69
2021/07/22 01:15:03;;;;;;;24.48;18.38;;;;;;;15.32;88.33;100766.81;5049905;28;20061;-69
2021/07/22 01:17:42;;;;;;;26.20;19.10;;;;;;;15.30;88.48;100763.38;5018438;28;20050;-69
2021/07/22 01:20:22;;;;;;;28.40;20.65;;;;;;;15.32;89.13;100763.28;5016846;28;20045;-68
2021/07/22 01:22:51;;;;;;;28.92;20.92;;;;;;;15.28;88.11;100761.78;5030048;28;20321;-68
2021/07/22 01:25:19;;;;;;;29.27;19.95;;;;;;;15.24;88.38;100762.97;4998631;28;20105;-69
2021/07/22 01:27:46;;;;;;;26.35;18.88;;;;;;;15.27;89.33;100763.63;4998454;28;20498;-69
2021/07/22 01:30:13;;;;;;;29.95;18.95;;;;;;;15.30;88.35;100771.44;5029872;28;20454;-69
2021/07/22 01:32:41;;;;;;;30.70;20.80;;;;;;;15.25;88.71;100757.47;4998307;28;20062;-68
2021/07/22 01:35:10;;;;;;;28.83;20.00;;;;;;;15.19;88.08;100753.41;4998366;28;20065;-68
2021/07/22 01:37:40;;;;;;;31.52;20.00;;;;;;;15.16;89.11;100756.28;4998327;28;20147;-68
2021/07/22 01:40:08;;;;;;;26.90;19.30;;;;;;;15.17;88.89;100749.09;4997279;28;20050;-69
2021/07/22 01:42:34;;;;;;;29.58;20.45;;;;;;;15.09;89.65;100764.91;4998121;28;20055;-68
2021/07/22 01:45:03;;;;;;;28.48;20.75;;;;;;;14.97;89.79;100755.91;4997922;28;20074;-68
2021/07/22 01:47:29;;;;;;;27.73;19.08;;;;;;;15.03;89.55;100763.53;4998026;28;20163;-68
2021/07/22 01:49:56;;;;;;;28.35;20.70;;;;;;;15.06;90.01;100758.81;4998161;28;20050;-69
2021/07/22 01:52:23;;;;;;;27.48;20.40;;;;;;;15.04;90.19;100760.72;4998303;28;20112;-69
2021/07/22 01:54:50;;;;;;;27.23;20.33;;;;;;;14.99;90.23;100759.31;4997761;28;20120;-68
2021/07/22 01:57:16;;;;;;;30.27;20.48;;;;;;;14.96;90.46;100763.09;4998020;28;20097;-68
2021/07/22 01:59:44;;;;;;;27.55;19.35;;;;;;;14.94;90.76;100765.03;4998079;28;20049;-69
2021/07/22 02:02:11;;;;;;;29.77;19.58;;;;;;;14.97;90.63;100762.13;4996973;28;20050;-68
2021/07/22 02:04:39;;;;;;;29.80;19.13;;;;;;;14.93;90.44;100763.31;4997681;28;20395;-69
2021/07/22 02:07:06;;;;;;;27.73;20.10;;;;;;;14.93;91.04;100763.31;5047352;28;20104;-69
2021/07/22 02:09:33;;;;;;;25.52;19.35;;;;;;;14.91;90.22;100755.34;5017063;28;20104;-69
2021/07/22 02:12:00;;;;;;;29.13;18.80;;;;;;;14.94;90.55;100755.13;5017572;28;20050;-68
2021/07/22 02:14:27;;;;;;;28.08;19.83;;;;;;;14.90;90.24;100752.75;5017380;28;20052;-68
2021/07/22 02:16:53;;;;;;;25.70;19.45;;;;;;;14.92;90.76;100759.75;5017232;28;20104;-68
2021/07/22 02:19:20;;;;;;;26.38;19.23;;;;;;;14.87;90.58;100758.38;5017266;28;20062;-68
2021/07/22 02:21:47;;;;;;;31.42;18.63;;;;;;;14.80;91.05;100752.53;5002376;28;20054;-68
2021/07/22 02:24:14;;;;;;;26.52;19.15;;;;;;;14.75;90.92;100752.88;4997343;28;20058;-69
2021/07/22 02:26:41;;;;;;;25.40;18.52;;;;;;;14.73;91.49;100757.47;4997585;28;20050;-68
2021/07/22 02:29:08;;;;;;;28.77;19.05;;;;;;;14.72;91.87;100752.19;4997480;28;20042;-68
2021/07/22 02:31:35;;;;;;;25.63;18.27;;;;;;;14.80;90.68;100753.41;4997343;28;20054;-68
2021/07/22 02:34:03;;;;;;;32.35;18.95;;;;;;;14.75;90.72;100750.19;4997606;28;20101;-68
2021/07/22 02:36:32;;;;;;;26.95;19.20;;;;;;;14.71;91.52;100754.00;4997152;28;20050;-68
2021/07/22 02:38:59;;;;;;;26.42;18.40;;;;;;;14.67;91.75;100741.75;4997143;28;20100;-68
2021/07/22 02:41:29;;;;;;;29.83;19.38;;;;;;;14.70;91.68;100749.59;4997043;28;20047;-68
2021/07/22 02:43:57;;;;;;;26.92;18.98;;;;;;;14.70;92.06;100748.75;4997048;28;20101;-68
2021/07/22 02:46:23;;;;;;;25.20;18.80;;;;;;;14.73;91.36;100751.22;4996897;28;20050;-69
2021/07/22 02:48:55;;;;;;;32.33;19.67;;;;;;;14.70;90.99;100752.28;4996950;28;20050;-68
2021/07/22 02:51:21;;;;;;;28.95;19.30;;;;;;;14.67;92.15;100752.50;4997304;28;20056;-69
2021/07/22 02:53:48;;;;;;;25.95;18.80;;;;;;;14.62;92.02;100760.03;4995842;28;20062;-69
2021/07/22 02:56:15;;;;;;;26.45;19.40;;;;;;;14.63;92.41;100753.69;4996881;28;20054;-68
2021/07/22 02:58:41;;;;;;;29.83;19.15;;;;;;;14.61;92.58;100758.31;4997010;28;20047;-69
2021/07/22 03:01:09;;;;;;;26.02;18.15;;;;;;;14.53;92.27;100756.13;4996678;28;20121;-69
2021/07/22 03:03:36;;;;;;;25.88;18.40;;;;;;;14.45;92.47;100759.34;4996753;28;20054;-68
2021/07/22 03:06:03;;;;;;;25.77;18.52;;;;;;;14.50;92.54;100762.56;5005787;28;20050;-68
2021/07/22 03:08:29;;;;;;;32.40;18.25;;;;;;;14.48;92.99;100759.13;5016415;28;20423;-68
2021/07/22 03:10:56;;;;;;;30.65;18.92;;;;;;;14.48;92.59;100752.91;5048299;28;20053;-67
2021/07/22 03:13:23;;;;;;;26.42;18.85;;;;;;;14.52;92.30;100759.78;5016058;28;20060;-68
2021/07/22 03:15:49;;;;;;;25.52;18.25;;;;;;;14.57;91.83;100763.03;5016020;28;20390;-69
2021/07/22 03:18:16;;;;;;;26.45;17.77;;;;;;;14.53;92.25;100758.81;5015266;28;20054;-68
2021/07/22 03:20:43;;;;;;;27.25;18.38;;;;;;;14.51;91.67;100758.91;5009972;28;20049;-68
2021/07/22 03:23:09;;;;;;;25.08;17.67;;;;;;;14.55;91.81;100758.72;4996280;28;20058;-68
2021/07/22 03:25:36;;;;;;;23.83;17.23;;;;;;;14.53;91.84;100748.94;5027847;28;20062;-69
2021/07/22 03:28:04;;;;;;;30.80;18.75;;;;;;;14.52;92.81;100754.41;5027959;28;20329;-69
2021/07/22 03:30:31;;;;;;;28.15;16.90;;;;;;;14.56;92.44;100755.06;5028012;28;20097;-69
2021/07/22 03:33:00;;;;;;;23.20;17.17;;;;;;;14.45;92.69;100750.44;4996130;28;20101;-68
2021/07/22 03:35:27;;;;;;;23.88;16.88;;;;;;;14.40;93.97;100745.38;4996329;28;20487;-69
2021/07/22 03:37:53;;;;;;;27.25;17.63;;;;;;;14.34;93.77;100757.38;4995344;28;20050;-68
2021/07/22 03:40:20;;;;;;;23.38;17.20;;;;;;;14.36;93.66;100757.28;4995978;28;20421;-68
2021/07/22 03:42:46;;;;;;;27.08;18.05;;;;;;;14.34;93.89;100745.78;4995960;28;20089;-68
2021/07/22 03:45:13;;;;;;;22.35;17.50;;;;;;;14.30;94.55;100744.25;4995770;28;20108;-68
2021/07/22 03:47:40;;;;;;;22.63;17.25;;;;;;;14.35;93.58;100752.88;4995802;28;20436;-68
2021/07/22 03:50:07;;;;;;;23.27;17.77;;;;;;;14.37;93.66;100742.88;4995970;28;20046;-68
2021/07/22 03:52:33;;;;;;;22.88;16.83;;;;;;;14.31;94.66;100741.47;4996110;28;20051;-69
2021/07/22 03:55:00;;;;;;;23.13;17.13;;;;;;;14.26;94.65;100741.81;4994801;28;20062;-68
2021/07/22 03:57:26;;;;;;;26.33;18.30;;;;;;;14.28;94.50;100747.06;4994844;28;20105;-68
2021/07/22 03:59:53;;;;;;;24.48;17.13;;;;;;;14.32;94.79;100745.03;4994917;28;20125;-68
2021/07/22 04:02:19;;;;;;;25.23;18.20;;;;;;;14.29;95.28;100747.91;4995375;28;20054;-69
2021/07/22 04:04:46;;;;;;;24.70;18.02;;;;;;;14.26;95.64;100747.16;4995059;28;20133;-68
2021/07/22 04:07:13;;;;;;;23.15;17.92;;;;;;;14.29;94.62;100745.22;4995316;28;20061;-69
2021/07/22 04:09:40;;;;;;;25.13;18.23;;;;;;;14.30;94.68;100746.94;4995864;28;20189;-68
2021/07/22 04:12:07;;;;;;;28.60;18.00;;;;;;;14.31;94.83;100751.34;4995373;28;20054;-68
2021/07/22 04:14:34;;;;;;;24.45;18.75;;;;;;;14.34;94.35;100753.84;4995535;28;20506;-68
2021/07/22 04:17:00;;;;;;;28.33;19.75;;;;;;;14.31;94.90;100748.66;4996364;28;20050;-67
2021/07/22 04:19:27;;;;;;;25.85;18.55;;;;;;;14.31;94.74;100754.91;4995561;28;20058;-68
2021/07/22 04:21:54;;;;;;;27.08;18.73;;;;;;;14.35;93.99;100751.06;4995786;28;20050;-67
2021/07/22 04:24:20;;;;;;;27.80;19.17;;;;;;;14.38;94.24;100747.28;4995715;28;20110;-68
2021/07/22 04:26:47;;;;;;;24.25;17.85;;;;;;;14.39;94.62;100757.09;4995529;28;20055;-68
2021/07/22 04:29:13;;;;;;;25.45;16.60;;;;;;;14.46;93.14;100755.72;4995600;28;20047;-68
2021/07/22 04:31:40;;;;;;;24.35;16.83;;;;;;;14.42;94.40;100753.34;4994915;28;20050;-68
2021/07/22 04:34:07;;;;;;;24.20;17.45;;;;;;;14.41;93.79;100752.47;4995362;28;20085;-68
2021/07/22 04:36:34;;;;;;;26.52;17.63;;;;;;;14.40;93.96;100754.28;4995195;28;20048;-68
2021/07/22 04:39:00;;;;;;;25.55;18.30;;;;;;;14.41;94.67;100757.84;4995388;28;20055;-70
2021/07/22 04:41:27;;;;;;;25.70;19.00;;;;;;;14.43;97.39;100749.69;4995202;28;20054;-69
2021/07/22 04:43:53;;;;;;;23.88;18.80;;;;;;;14.44;100.00;100764.81;5027076;28;20125;-72
2021/07/22 04:46:20;;;;;;;26.20;19.80;;;;;;;14.33;99.77;100738.72;4995147;28;20058;-80
2021/07/22 04:48:46;;;;;;;28.42;20.67;;;;;;;14.51;97.71;100756.22;4994512;28;20123;-72
2021/07/22 04:51:13;;;;;;;23.55;18.60;;;;;;;14.62;95.60;100754.66;4995551;28;20050;-73
2021/07/22 04:53:40;;;;;;;25.85;19.15;;;;;;;14.59;99.20;100744.13;4995023;28;20058;-72
2021/07/22 04:56:08;;;;;;;28.15;19.50;;;;;;;14.65;95.12;100760.66;4986021;28;20127;-69
2021/07/22 04:58:34;;;;;;;28.83;20.77;;;;;;;14.65;94.85;100759.78;4974216;28;20054;-69
2021/07/22 05:01:04;;;;;;;28.50;20.30;;;;;;;14.69;94.62;100766.69;4979200;28;20109;-75
2021/07/22 05:03:31;;;;;;;28.08;20.25;;;;;;;14.68;94.13;100756.91;4987806;28;20042;-74
2021/07/22 05:05:58;;;;;;;31.30;21.05;;;;;;;14.78;95.65;100768.75;4993445;28;20137;-75
2021/07/22 05:08:25;;;;;;;27.60;20.30;;;;;;;14.86;93.29;100770.09;4989578;28;20054;-74
2021/07/22 05:10:51;;;;;;;25.83;19.77;;;;;;;14.90;92.45;100766.19;4989865;28;20073;-72
2021/07/22 05:13:18;;;;;;;28.67;20.27;;;;;;;14.96;92.67;100768.47;4988634;28;20069;-73
2021/07/22 05:15:46;;;;;;;27.10;20.08;;;;;;;15.02;93.09;100770.72;4997279;28;20053;-74
2021/07/22 05:18:15;;;;;;;25.00;18.67;;;;;;;15.06;93.10;100766.88;5026759;28;20074;-74
2021/07/22 05:20:42;;;;;;;28.55;19.40;;;;;;;15.09;92.72;100760.38;4997982;28;20038;-75
2021/07/22 05:23:09;;;;;;;25.67;18.38;;;;;;;15.15;91.38;100761.81;4989173;28;20135;-73
2021/07/22 05:25:37;;;;;;;24.73;18.27;;;;;;;15.18;89.92;100761.56;4997616;28;20102;-75
2021/07/22 05:28:04;;;;;;;28.23;18.63;;;;;;;15.20;89.69;100757.81;5011796;28;20447;-74
2021/07/22 05:30:30;;;;;;;26.55;17.75;;;;;;;15.26;89.27;100761.88;5026028;28;20162;-74
2021/07/22 05:32:57;;;;;;;25.58;18.45;;;;;;;15.25;91.13;100762.84;4992611;28;20428;-74
2021/07/22 05:35:24;;;;;;;22.45;18.02;;;;;;;15.28;91.09;100762.66;4997697;28;20055;-75
2021/07/22 05:37:53;;;;;;;24.98;19.00;;;;;;;15.31;94.73;100773.16;4996505;28;20440;-75
2021/07/22 05:40:19;;;;;;;26.13;18.70;;;;;;;15.21;95.06;100754.13;4994187;28;20046;-74
2021/07/22 05:42:49;;;;;;;27.00;19.35;;;;;;;15.32;94.97;100772.19;4996065;28;20433;-77
2021/07/22 05:45:15;;;;;;;24.05;17.58;;;;;;;15.44;93.55;100769.59;4993314;28;20046;-72
2021/07/22 05:47:42;;;;;;;24.38;17.58;;;;;;;15.47;94.01;100769.38;4997665;28;20142;-72
2021/07/22 05:50:09;;;;;;;26.25;18.45;;;;;;;15.52;92.39;100769.06;4997697;28;20054;-73
2021/07/22 05:52:36;;;;;;;26.20;19.10;;;;;;;15.58;92.03;100774.00;4997580;28;20050;-74
2021/07/22 05:55:04;;;;;;;30.30;20.13;;;;;;;15.51;93.58;100778.94;4985961;28;20329;-73
2021/07/22 05:57:32;;;;;;;27.35;19.90;;;;;;;15.54;91.47;100784.13;4984773;28;20399;-72
2021/07/22 05:59:59;;;;;;;33.78;21.63;;;;;;;15.51;90.07;100776.25;4994536;28;20385;-73
2021/07/22 06:02:25;;;;;;;25.77;20.27;;;;;;;15.55;91.82;100779.59;4996920;28;20092;-70
2021/07/22 06:04:52;;;;;;;28.52;19.80;;;;;;;15.54;90.44;100778.75;4992954;28;20447;-72
2021/07/22 06:07:19;;;;;;;31.33;20.75;;;;;;;15.59;90.23;100773.03;5008747;28;20046;-71
2021/07/22 06:09:45;;;;;;;28.17;20.10;;;;;;;15.60;92.00;100772.91;5044463;28;20042;-77
2021/07/22 06:12:12;;;;;;;26.65;19.95;;;;;;;15.50;90.91;100747.66;5010861;28;20391;-69
2021/07/22 06:14:39;;;;;;;29.73;20.52;;;;;;;15.70;91.80;100762.31;5015261;28;20058;-70
2021/07/22 06:17:06;;;;;;;30.40;19.50;;;;;;;15.79;91.03;100776.09;5015689;28;20054;-69
2021/07/22 06:19:33;;;;;;;23.92;17.52;;;;;;;15.87;90.87;100774.53;5011396;28;20089;-70
2021/07/22 06:21:59;;;;;;;26.45;15.80;;;;;;;15.99;89.86;100772.81;4996179;28;20068;-70
2021/07/22 06:24:26;;;;;;;21.42;16.10;;;;;;;16.09;88.21;100783.78;4996469;28;20109;-69
2021/07/22 06:26:53;;;;;;;23.85;15.40;;;;;;;16.15;87.67;100764.47;4996566;28;20054;-69
2021/07/22 06:29:19;;;;;;;20.63;14.35;;;;;;;16.24;87.39;100773.66;4997612;28;20066;-70
2021/07/22 06:31:46;;;;;;;24.35;14.88;;;;;;;16.27;90.97;100781.53;5028896;28;20326;-69
2021/07/22 06:34:13;;;;;;;19.20;13.80;;;;;;;16.35;89.09;100774.69;4997373;28;20101;-69
2021/07/22 06:36:39;;;;;;;23.60;14.35;;;;;;;16.43;89.67;100775.84;5001757;28;20432;-69
2021/07/22 06:39:06;;;;;;;18.70;14.00;;;;;;;16.50;90.24;100776.22;5016959;28;20050;-69
2021/07/22 06:41:32;;;;;;;20.05;14.20;;;;;;;16.54;87.49;100766.06;5048927;28;20053;-70
2021/07/22 06:43:59;;;;;;;19.60;14.35;;;;;;;16.60;87.84;100773.69;5015806;28;20073;-70
2021/07/22 06:46:26;;;;;;;22.13;14.13;;;;;;;16.66;86.80;100775.91;5015753;28;20053;-69
2021/07/22 06:48:54;;;;;;;20.08;14.43;;;;;;;16.84;84.95;100772.78;5016068;28;20049;-70
2021/07/22 06:51:23;;;;;;;17.10;13.52;;;;;;;16.90;85.91;100752.53;5017109;28;20050;-70
2021/07/22 06:53:52;;;;;;;17.38;12.85;;;;;;;16.92;86.71;100764.94;5017294;28;20091;-70
2021/07/22 06:56:19;;;;;;;23.15;14.48;;;;;;;17.03;87.06;100768.63;5017246;28;20050;-70
2021/07/22 06:58:48;;;;;;;18.17;12.50;;;;;;;17.20;85.41;100772.69;5016480;28;20054;-70
2021/07/22 07:01:17;;;;;;;20.88;13.15;;;;;;;17.24;85.74;100772.34;5016304;28;20375;-70
2021/07/22 07:03:44;;;;;;;21.42;13.77;;;;;;;17.33;85.77;100773.44;5011339;28;20066;-70
2021/07/22 07:06:11;;;;;;;16.88;12.88;;;;;;;17.44;86.65;100769.88;4996895;28;20061;-70
2021/07/22 07:08:37;;;;;;;19.30;13.10;;;;;;;17.59;85.49;100767.78;5014422;28;20053;-70
2021/07/22 07:11:06;;;;;;;21.10;13.30;;;;;;;17.76;86.12;100769.09;5043645;28;20096;-70
2021/07/22 07:13:33;;;;;;;18.30;13.55;;;;;;;17.94;83.70;100768.59;5016193;28;20046;-70
2021/07/22 07:16:05;;;;;;;21.20;13.52;;;;;;;18.03;81.70;100773.22;5009452;28;20050;-69
2021/07/22 07:18:31;;;;;;;21.02;14.32;;;;;;;18.13;78.30;100767.06;4996642;28;20054;-70
2021/07/22 07:21:07;;;;;;;18.10;13.88;;;;;;;18.11;79.81;100763.63;4995564;28;20053;-69
2021/07/22 07:23:34;;;;;;;18.83;14.30;;;;;;;18.18;80.32;100767.53;4996655;28;20054;-70
2021/07/22 07:26:01;;;;;;;24.38;14.32;;;;;;;18.26;79.06;100764.22;5027842;28;20054;-71
2021/07/22 07:28:28;;;;;;;19.27;14.68;;;;;;;18.36;81.04;100777.81;4995383;28;20061;-70
2021/07/22 07:30:54;;;;;;;25.52;15.75;;;;;;;18.48;78.57;100771.34;4996423;28;20120;-70
2021/07/22 07:33:21;;;;;;;26.63;15.57;;;;;;;18.51;79.82;100768.38;4996326;28;20109;-71
2021/07/22 07:35:47;;;;;;;20.73;15.18;;;;;;;18.53;80.46;100771.81;4996234;28;20046;-70
2021/07/22 07:38:16;;;;;;;20.50;15.35;;;;;;;18.62;80.82;100772.03;4995770;28;20085;-71
2021/07/22 07:40:43;;;;;;;26.05;16.23;;;;;;;18.70;80.07;100774.94;4994927;28;20046;-69
2021/07/22 07:43:14;;;;;;;24.02;17.27;;;;;;;18.81;77.85;100769.47;4996088;28;20823;-71
2021/07/22 07:45:40;;;;;;;25.05;18.02;;;;;;;18.83;79.00;100772.88;4996252;28;20054;-71
2021/07/22 07:48:07;;;;;;;25.48;17.70;;;;;;;18.91;79.35;100765.94;4996347;28;20050;-71
2021/07/22 07:50:34;;;;;;;27.15;18.83;;;;;;;19.08;78.47;100775.31;4994868;28;20428;-70
2021/07/22 07:53:15;;;;;;;30.33;18.60;;;;;;;19.08;79.80;100770.78;4995992;28;20062;-71
2021/07/22 07:55:43;;;;;;;28.88;16.83;;;;;;;19.07;79.51;100766.34;4995777;28;20389;-70
2021/07/22 07:58:10;;;;;;;28.42;17.42;;;;;;;19.16;76.43;100772.78;4995919;28;20412;-69
2021/07/22 08:00:38;;;;;;;25.52;17.08;;;;;;;19.17;77.76;100770.97;4995966;28;20054;-70
2021/07/22 08:03:06;;;;;;;25.92;17.80;;;;;;;19.21;77.89;100775.97;4996254;28;20054;-69
2021/07/22 08:05:32;;;;;;;32.10;18.40;;;;;;;19.28;76.75;100773.56;4995720;28;20050;-70
2021/07/22 08:07:59;;;;;;;26.48;18.20;;;;;;;19.21;76.18;100770.53;4995845;28;20132;-70
2021/07/22 08:10:26;;;;;;;24.17;17.08;;;;;;;19.32;75.99;100771.44;4995668;28;20050;-71
2021/07/22 08:12:53;;;;;;;30.42;17.50;;;;;;;19.40;76.16;100772.47;4995989;28;20392;-69
2021/07/22 08:15:19;;;;;;;27.27;16.85;;;;;;;19.52;76.43;100775.09;4996724;28;20113;-71
2021/07/22 08:17:46;;;;;;;27.40;18.23;;;;;;;19.47;74.98;100766.50;5015612;28;20060;-70
2021/07/22 08:20:13;;;;;;;24.65;17.45;;;;;;;19.58;75.63;100773.66;5013156;28;20092;-70
2021/07/22 08:22:40;;;;;;;25.42;18.08;;;;;;;19.62;75.53;100761.56;4995596;28;20090;-69
2021/07/22 08:25:07;;;;;;;28.45;18.58;;;;;;;19.65;75.29;100767.56;4995804;28;20051;-70
2021/07/22 08:27:34;;;;;;;30.73;18.83;;;;;;;19.70;73.87;100760.88;5027187;28;20050;-70
2021/07/22 08:30:01;;;;;;;28.73;18.60;;;;;;;19.83;73.63;100766.88;4995500;28;20104;-71
2021/07/22 08:32:27;;;;;;;23.70;15.80;;;;;;;19.82;69.39;100762.47;4995704;28;20066;-70
2021/07/22 08:34:54;;;;;;;28.02;16.48;;;;;;;19.76;69.35;100763.03;4995639;28;20125;-70
2021/07/22 08:37:21;;;;;;;29.83;16.83;;;;;;;19.71;69.88;100768.03;4995713;28;20081;-71
2021/07/22 08:39:50;;;;;;;22.45;15.70;;;;;;;19.68;71.65;100761.88;4995640;28;20065;-69
2021/07/22 08:42:17;;;;;;;26.27;16.98;;;;;;;19.71;70.94;100765.31;4995678;28;20104;-71
2021/07/22 08:44:44;;;;;;;23.58;17.02;;;;;;;19.70;69.82;100761.72;4995531;28;20057;-71
2021/07/22 08:47:11;;;;;;;25.20;15.57;;;;;;;19.63;71.91;100753.31;4995504;28;20058;-71
2021/07/22 08:49:39;;;;;;;25.65;16.45;;;;;;;19.63;71.01;100758.75;4999014;28;20054;-71
2021/07/22 08:52:11;;;;;;;25.00;16.42;;;;;;;19.62;72.10;100759.72;4999365;28;20057;-71
2021/07/22 08:54:39;;;;;;;23.38;15.60;;;;;;;19.65;70.25;100750.44;4999273;28;20069;-71
2021/07/22 08:57:07;;;;;;;24.02;16.80;;;;;;;19.74;68.72;100756.91;4999035;28;20086;-70
2021/07/22 08:59:34;;;;;;;22.05;15.95;;;;;;;19.92;69.50;100759.78;4998939;28;20499;-70
2021/07/22 09:02:01;;;;;;;25.08;16.52;;;;;;;19.97;70.33;100756.66;5030361;28;20050;-71
2021/07/22 09:04:28;;;;;;;25.13;16.65;;;;;;;20.11;69.66;100761.69;4998920;28;20444;-70
2021/07/22 09:06:56;;;;;;;28.58;16.90;;;;;;;20.34;68.72;100756.84;4999062;28;20085;-71
2021/07/22 09:09:23;;;;;;;22.92;16.25;;;;;;;20.43;66.90;100757.81;4998922;28;20054;-70
2021/07/22 09:11:56;;;;;;;22.63;16.95;;;;;;;20.55;65.02;100757.69;4998760;28;20054;-71
2021/07/22 09:14:25;;;;;;;24.70;16.55;;;;;;;20.65;65.23;100746.81;4998774;28;20105;-70
2021/07/22 09:16:52;;;;;;;24.23;14.65;;;;;;;20.77;65.11;100746.50;5011930;28;20104;-71
2021/07/22 09:19:34;;;;;;;21.50;15.05;;;;;;;20.94;66.73;100749.50;5018316;28;20104;-70
2021/07/22 09:22:03;;;;;;;22.70;15.82;;;;;;;21.04;65.69;100749.47;5001445;28;20057;-70
2021/07/22 09:24:29;;;;;;;19.55;13.25;;;;;;;21.11;64.83;100741.59;4998932;28;20113;-72
2021/07/22 09:26:57;;;;;;;19.70;14.35;;;;;;;21.21;64.37;100745.13;4993618;28;20112;-70
2021/07/22 09:29:23;;;;;;;21.00;13.73;;;;;;;21.19;63.88;100744.41;4983955;28;20058;-70
2021/07/22 09:31:50;;;;;;;19.38;13.00;;;;;;;21.30;64.24;100754.25;5029512;28;20086;-71
2021/07/22 09:34:23;;;;;;;19.30;12.90;;;;;;;21.46;61.40;100750.00;4993311;28;20117;-71
2021/07/22 09:36:51;;;;;;;19.50;12.95;;;;;;;21.53;60.12;100751.13;4997405;28;20100;-71
2021/07/22 09:39:20;;;;;;;21.05;13.18;;;;;;;21.64;62.14;100744.63;4997999;28;20054;-71
2021/07/22 09:41:57;;;;;;;21.05;14.73;;;;;;;21.75;63.33;100749.88;4997810;28;20395;-70
2021/07/22 09:44:31;;;;;;;19.92;13.20;;;;;;;21.80;60.92;100749.41;4995398;28;20054;-71
2021/07/22 09:46:59;;;;;;;19.67;13.40;;;;;;;21.92;58.41;100750.91;4997921;28;20379;-70
2021/07/22 09:49:31;;;;;;;20.48;13.80;;;;;;;21.96;60.88;100752.28;4999484;28;20184;-71
2021/07/22 09:52:01;;;;;;;19.70;14.13;;;;;;;22.04;57.02;100753.38;4997587;28;20050;-70
2021/07/22 09:54:46;;;;;;;;;;;;;;;21.98;60.83;100754.88;4999570;28;20144;-70
2021/07/22 09:57:14;;;;;;;17.27;12.10;;;;;;;22.10;58.76;100753.63;5018504;28;19925;-71
2021/07/22 09:59:45;;;;;;;21.35;10.95;;;;;;;22.13;55.06;100754.31;4993152;28;20059;-71
2021/07/22 10:02:21;;;;;;;21.38;10.98;;;;;;;22.17;60.89;100753.00;4989625;28;20046;-71
2021/07/22 10:05:06;;;;;;;20.25;11.65;;;;;;;22.29;57.16;100751.78;4997507;28;20058;-71
2021/07/22 10:07:35;;;;;;;26.38;14.05;;;;;;;22.37;59.19;100740.97;4991725;28;20428;-71
2021/07/22 10:10:03;;;;;;;;;;;;;;;22.38;59.27;100744.50;5028739;28;20433;-71
2021/07/22 10:12:30;;;;;;;18.20;13.07;;;;;;;22.43;57.03;100738.63;4997236;28;19925;-71
2021/07/22 10:14:58;;;;;;;19.52;13.63;;;;;;;22.58;58.64;100749.81;4998759;28;20066;-71
2021/07/22 10:17:35;;;;;;;25.65;15.02;;;;;;;22.71;60.51;100739.34;4992901;28;20120;-70
2021/07/22 10:20:05;;;;;;;19.17;13.27;;;;;;;22.81;56.87;100738.41;4997597;28;20348;-71
2021/07/22 10:22:32;;;;;;;23.42;15.85;;;;;;;22.77;55.65;100738.72;4994727;28;20105;-70
2021/07/22 10:25:05;;;;;;;24.50;16.17;;;;;;;22.71;57.32;100733.09;4997299;28;20062;-71
2021/07/22 10:27:32;;;;;;;25.02;15.13;;;;;;;22.93;59.06;100726.22;4991352;28;20194;-69
2021/07/22 10:30:04;;;;;;;29.17;17.27;;;;;;;22.96;56.75;100728.63;4995118;28;20054;-71
2021/07/22 10:32:32;;;;;;;23.17;16.30;;;;;;;23.03;58.98;100729.69;4996948;28;20105;-71
2021/07/22 10:34:59;;;;;;;23.60;17.02;;;;;;;23.14;57.68;100722.25;4993959;28;20070;-71
2021/07/22 10:37:25;;;;;;;25.10;16.70;;;;;;;23.40;60.91;100722.25;4996798;28;20431;-71
2021/07/22 10:40:07;;;;;;;31.58;18.45;;;;;;;23.65;58.58;100722.31;4996290;28;20720;-71
2021/07/22 10:42:46;;;;;;;26.48;18.05;;;;;;;23.48;57.93;100717.84;4998287;28;20317;-71
2021/07/22 10:45:27;;;;;;;27.30;17.70;;;;;;;23.20;61.41;100721.59;4996068;28;20058;-71
2021/07/22 10:48:05;;;;;;;28.33;17.40;;;;;;;23.03;57.36;100726.09;4998596;28;20054;-69
2021/07/22 10:50:39;;;;;;;30.20;16.63;;;;;;;22.82;60.36;100712.91;4997208;28;20053;-69
2021/07/22 10:53:06;;;;;;;25.45;17.13;;;;;;;22.66;60.96;100711.78;5004995;28;20047;-70
2021/07/22 10:55:42;;;;;;;24.92;17.05;;;;;;;22.69;60.49;100708.75;4997650;28;20585;-70
2021/07/22 10:58:30;;;;;;;26.85;17.00;;;;;;;22.84;58.77;100703.56;4996687;28;20058;-70
2021/07/22 11:00:57;;;;;;;25.73;15.73;;;;;;;22.69;62.40;100691.56;4995160;28;20143;-71
2021/07/22 11:03:38;;;;;;;24.38;15.07;;;;;;;22.61;62.02;100701.38;4996670;28;20053;-70
2021/07/22 11:06:08;;;;;;;23.65;15.27;;;;;;;22.83;58.17;100696.44;4996336;28;20042;-70
2021/07/22 11:08:39;;;;;;;23.15;15.48;;;;;;;22.97;58.00;100697.69;4998256;28;20050;-70
2021/07/22 11:11:13;;;;;;;23.45;14.43;;;;;;;23.25;56.88;100693.91;4995897;28;20050;-71
2021/07/22 11:13:50;;;;;;;27.10;17.15;;;;;;;23.45;54.92;100694.50;4996092;28;20054;-72